This is the latest recevied weather packets stored in our database for station/object WD4HMR. If no packets are shown the sender has not sent any weather packets the latest 10 day(s).
| Time | Temp. | Humidity | Pressure | Rain* | Wind** | Luminosity | Snow |
|---|---|---|---|---|---|---|---|
| 1777232403 | 25.56° C | 68% | 1013.1 hPa | 0 mm | - | 1161 W/m² | - |
| 1777232104 | 25° C | 70% | 1013.2 hPa | 0 mm | - | 1173 W/m² | - |
| 1777231503 | 25.56° C | 66% | 1013.3 hPa | 0 mm | - | 1194 W/m² | - |
| 1777228505 | 24.44° C | 77% | 1013.5 hPa | 0 mm | - | 1260 W/m² | - |
| 1777228204 | 25.56° C | 73% | 1013.7 hPa | 0 mm | - | 1262 W/m² | - |
| 1777227304 | 24.44° C | 75% | 1013.8 hPa | 0 mm | - | 1265 W/m² | - |
| 1777225504 | 24.44° C | 75% | 1014 hPa | 0 mm | - | 1251 W/m² | - |
| 1777225204 | 23.89° C | 76% | 1014.1 hPa | 0 mm | - | 1247 W/m² | - |
| 1777224904 | 24.44° C | 77% | 1014 hPa | 0 mm | - | 1241 W/m² | - |
| 1777224604 | 24.44° C | 74% | 1014.1 hPa | 0 mm | - | 1235 W/m² | - |
| 1777223104 | 23.89° C | 76% | 1014.2 hPa | 0 mm | - | 1192 W/m² | - |
| 1777221304 | 23.89° C | 78% | 1014 hPa | 0 mm | - | 1120 W/m² | - |
| 1777221004 | 23.89° C | 79% | 1014 hPa | 0 mm | - | 1106 W/m² | - |
| 1777220704 | 23.33° C | 80% | 1014 hPa | 0 mm | - | 1091 W/m² | - |
| 1777220104 | 23.33° C | 80% | 1014 hPa | 0 mm | - | 1060 W/m² | - |
| 1777217104 | 21.11° C | 86% | 1013.6 hPa | 0 mm | - | 878 W/m² | - |
| 1777216504 | 21.11° C | 85% | 1013.7 hPa | 0 mm | - | 838 W/m² | - |
| 1777215304 | 21.11° C | 88% | 1013.2 hPa | 0 mm | - | 754 W/m² | - |
| 1777215004 | 21.67° C | 86% | 1013.5 hPa | 0 mm | - | 733 W/m² | - |
| 1777212604 | 19.44° C | 90% | 1012.7 hPa | 0 mm | - | 560 W/m² | - |
| 1777211704 | 18.89° C | 93% | 1012.1 hPa | 0 mm | - | 496 W/m² | - |
| 1777210804 | 19.44° C | 92% | 1012.2 hPa | 0 mm | - | 433 W/m² | - |
| 1777209904 | 18.89° C | 92% | 1011.8 hPa | 0 mm | - | 371 W/m² | - |
| 1777208704 | 18.89° C | 92% | 1011.6 hPa | 0 mm | - | 292 W/m² | - |
| 1777208104 | 18.33° C | 93% | 1011.4 hPa | 0 mm | - | 255 W/m² | - |
* Rain latest hour (hover to see other rain measurements)
** Current wind speed in m/s (hover to see current wind gust speed)